KLM54JD EGPE-EGLL
Flight info
| Callsign | KLM54JD |
|---|---|
| Flight time | N/A |
| Altitude | 36000 |
| Route | GUSSI DCT NESDI DCT ERSON DCT AKOMU/N0452F370 DCT VAMEB DCT NUGRA |
| Aircraft | B738/M-SDE2E3FGHIRWXY/LB1 |
Departure
| Time | 2026-04-29 14:48 |
|---|---|
| Airport | Inverness Airport (EGPE) |
Arrival
| Time | N/A |
|---|---|
| Airport | London Heathrow Airport (EGLL) |
| Time | Latitude | Longitude | Altitude | Speed | Heading |
|---|---|---|---|---|---|
| 2026-04-29 14:01 | 57.53985 | -4.06239 | 48 ft | 0 kts | 274° |
| 2026-04-29 14:38 | 57.53984 | -4.06235 | 48 ft | 3 kts | 274° |
| 2026-04-29 14:39 | 57.53987 | -4.06190 | 48 ft | 4 kts | 237° |
| 2026-04-29 14:39 | 57.54006 | -4.06161 | 43 ft | 4 kts | 191° |
| 2026-04-29 14:39 | 57.54011 | -4.06159 | 43 ft | 0 kts | 186° |
| 2026-04-29 14:44 | 57.54007 | -4.06160 | 43 ft | 3 kts | 186° |
| 2026-04-29 14:44 | 57.53946 | -4.06170 | 48 ft | 12 kts | 185° |
| 2026-04-29 14:45 | 57.53851 | -4.06183 | 48 ft | 15 kts | 184° |
| 2026-04-29 14:45 | 57.53788 | -4.06176 | 47 ft | 7 kts | 166° |
| 2026-04-29 14:45 | 57.53757 | -4.06114 | 40 ft | 0 kts | 128° |
| 2026-04-29 14:45 | 57.53743 | -4.06079 | 39 ft | 6 kts | 128° |
| 2026-04-29 14:46 | 57.53716 | -4.05993 | 36 ft | 9 kts | 111° |
| 2026-04-29 14:46 | 57.53727 | -4.05897 | 34 ft | 0 kts | 51° |
| 2026-04-29 14:47 | 57.53809 | -4.05717 | 39 ft | 54 kts | 50° |
| 2026-04-29 14:47 | 57.54229 | -4.04807 | 33 ft | 129 kts | 49° |
| 2026-04-29 14:47 | 57.54666 | -4.03857 | 161 ft | 158 kts | 49° |
| 2026-04-29 14:48 | 57.55697 | -4.01744 | 1165 ft | 172 kts | 49° |
| 2026-04-29 14:48 | 57.56498 | -4.00011 | 1939 ft | 186 kts | 50° |
| 2026-04-29 14:48 | 57.57522 | -3.98254 | 2147 ft | 215 kts | 28° |
| 2026-04-29 14:48 | 57.59046 | -3.97662 | 2380 ft | 237 kts | 357° |
| 2026-04-29 14:49 | 57.60724 | -3.98407 | 2680 ft | 259 kts | 331° |
| 2026-04-29 14:49 | 57.62156 | -4.00494 | 3298 ft | 264 kts | 311° |
| 2026-04-29 14:49 | 57.63145 | -4.03345 | 4028 ft | 263 kts | 285° |
| 2026-04-29 14:49 | 57.63351 | -4.05548 | 4548 ft | 260 kts | 267° |
| 2026-04-29 14:50 | 57.62926 | -4.08795 | 5283 ft | 260 kts | 239° |
| 2026-04-29 14:50 | 57.61718 | -4.11286 | 5937 ft | 262 kts | 212° |
| 2026-04-29 14:50 | 57.60095 | -4.12866 | 6720 ft | 264 kts | 204° |
| 2026-04-29 14:50 | 57.58350 | -4.13948 | 7397 ft | 267 kts | 184° |
| 2026-04-29 14:51 | 57.56524 | -4.13470 | 8184 ft | 267 kts | 156° |
| 2026-04-29 14:51 | 57.54978 | -4.11659 | 9043 ft | 267 kts | 148° |
| 2026-04-29 14:51 | 57.53213 | -4.10496 | 9838 ft | 270 kts | 172° |
| 2026-04-29 14:51 | 57.51349 | -4.10297 | 10655 ft | 273 kts | 176° |
| 2026-04-29 14:52 | 57.49412 | -4.09841 | 10948 ft | 294 kts | 161° |
| 2026-04-29 14:52 | 57.47524 | -4.08686 | 11140 ft | 315 kts | 163° |
| 2026-04-29 14:52 | 57.45370 | -4.07869 | 11566 ft | 329 kts | 171° |
| 2026-04-29 14:52 | 57.43056 | -4.07557 | 12190 ft | 336 kts | 177° |
| 2026-04-29 14:53 | 57.40700 | -4.07654 | 12949 ft | 340 kts | 181° |
| 2026-04-29 14:53 | 57.38333 | -4.08018 | 13727 ft | 344 kts | 184° |
| 2026-04-29 14:53 | 57.35942 | -4.08539 | 14475 ft | 348 kts | 185° |
| 2026-04-29 14:53 | 57.33522 | -4.09145 | 15182 ft | 352 kts | 185° |
| 2026-04-29 14:54 | 57.31087 | -4.09787 | 15924 ft | 356 kts | 185° |
| 2026-04-29 14:54 | 57.28616 | -4.10450 | 16629 ft | 361 kts | 185° |
| 2026-04-29 14:54 | 57.26117 | -4.11118 | 17347 ft | 365 kts | 185° |
| 2026-04-29 14:54 | 57.23587 | -4.11791 | 18058 ft | 369 kts | 185° |
| 2026-04-29 14:55 | 57.21030 | -4.12468 | 18743 ft | 373 kts | 184° |
| 2026-04-29 14:55 | 57.18443 | -4.13130 | 19360 ft | 377 kts | 184° |
| 2026-04-29 14:55 | 57.15832 | -4.13786 | 20003 ft | 380 kts | 185° |
| 2026-04-29 14:55 | 57.13204 | -4.14445 | 20641 ft | 384 kts | 185° |
| 2026-04-29 14:56 | 57.10584 | -4.15101 | 21310 ft | 385 kts | 185° |
| 2026-04-29 14:56 | 57.07884 | -4.15768 | 21899 ft | 389 kts | 185° |
| 2026-04-29 14:56 | 57.05221 | -4.16422 | 22441 ft | 393 kts | 185° |
| 2026-04-29 14:56 | 57.02632 | -4.17056 | 22953 ft | 398 kts | 185° |
| 2026-04-29 14:57 | 56.99869 | -4.17732 | 23471 ft | 403 kts | 185° |
| 2026-04-29 14:57 | 56.97080 | -4.18414 | 24006 ft | 406 kts | 185° |
| 2026-04-29 14:57 | 56.94265 | -4.19103 | 24468 ft | 409 kts | 185° |
| 2026-04-29 14:57 | 56.91431 | -4.19796 | 24929 ft | 412 kts | 185° |
| 2026-04-29 14:58 | 56.88579 | -4.20494 | 25375 ft | 414 kts | 185° |
| 2026-04-29 14:58 | 56.85714 | -4.21193 | 25824 ft | 417 kts | 185° |
| 2026-04-29 14:58 | 56.82827 | -4.21897 | 26249 ft | 420 kts | 185° |
| 2026-04-29 14:58 | 56.79915 | -4.22605 | 26671 ft | 423 kts | 185° |
| 2026-04-29 14:59 | 56.76993 | -4.23314 | 27104 ft | 425 kts | 185° |
| 2026-04-29 14:59 | 56.74052 | -4.24027 | 27505 ft | 428 kts | 185° |
| 2026-04-29 14:59 | 56.71087 | -4.24744 | 27914 ft | 431 kts | 185° |
| 2026-04-29 14:59 | 56.68102 | -4.25464 | 28313 ft | 433 kts | 185° |
| 2026-04-29 15:00 | 56.65104 | -4.26188 | 28699 ft | 436 kts | 185° |
| 2026-04-29 15:00 | 56.62126 | -4.26905 | 29091 ft | 438 kts | 185° |
| 2026-04-29 15:00 | 56.59091 | -4.27636 | 29456 ft | 441 kts | 185° |
| 2026-04-29 15:00 | 56.56002 | -4.28378 | 29814 ft | 443 kts | 185° |
| 2026-04-29 15:01 | 56.52970 | -4.29104 | 30197 ft | 445 kts | 185° |
| 2026-04-29 15:01 | 56.51934 | -4.29352 | 30354 ft | 445 kts | 185° |